ETEB 270810Z AUTO 15003KT 9999 CLR M01/M02 A3031 RMK AO2 SLP303 $ ETIK 270810Z AUTO 00000KT M0200 R24/0150 FZFG VV000 M02/M02 A3034 RMK AO2 FZDZB0756E10 SLP295 $ EDDE 270820Z AUTO 18008KT CAVOK 02/00 Q1026 NOSIG EDDF 270820Z AUTO 08004KT 040V110 2900 0300 R25R/P2000N R25C/P2000N R25L/P2000N R18/1900D BCFG BKN002 02/01 Q1026 TEMPO 0400 FG ETIC 270828Z AUTO 17004KT 1600 R14/1500VP1500 BR VV003 00/M00 A3034 RMK AO2 SLP296 FZRANO $ EDQM 270820Z VRB02KT 6000 FEW003 M01/M01 Q1027 ETIH 270804Z AUTO 00000KT 0400 HZ VV001 M00/M03 A3036 RMK AO2 FZDZE04 SLP306 RVRNO $ ETSI 270820Z AUTO 13003KT 0600 // ////// 00/00 Q1028 /// EDDP 270820Z AUTO 17007KT CAVOK 02/01 Q1027 NOSIG EDDM 270820Z AUTO 10007KT 0300 0250 R08L/0350N R08R/0325N FZFG VV002 M02/M02 Q1028 BECMG 0600 ETSN 270820Z 10005KT 0200 FZFG VV001 M00/M00 Q1028 RED ETHN 270820Z 14006KT 9999 FEW130 SCT380 01/00 Q1026 BLU+ EDDN 270820Z AUTO 13008KT 1400 1100 R28/1400N BR BKN002 01/00 Q1028 NOSIG EDDS 270820Z AUTO VRB02KT 8000 SCT001 M02/M02 Q1026 NOSIG

METAR Messwerte

Klicken Sie auf einen Ort, um die 36h-Historie abzurufen

Ortsname
Ländercode / m ü. NN
Zeit Temperatur Taupunkt Rel.
Luftfeuchte
Luftdruck:
Altimeter
NN
Station
Wind in Beaufort
(Knoten)
Sichtweite
(Meter)
Wolken
(Meter über Grund)
Wettererscheinung
Ansbach-Katterbach
DE 466
So 27.11. 09:10-1-293 %1026
1030
971
SSO 2 (3)>= 10000  
Bad Windsheim - Illesheim
DE 326
So 27.11. 09:10-2-2100 %1027
1030
988
Windstill  Nebel (gefrierend)
Erfurt-Bindersleben
DE 314
So 27.11. 09:202087 %1026
1028
988
S 3 (8)>= 10000Nicht signifikant 
Frankfurt
DE 113
So 27.11. 09:202193 %1026
1027
1012
O 2 (4)
NO - OSO
2900
Bald zeitweise: 400
Stark bewölkt (61)Nebel-Bänke
Bald zeitweise: Nebel
Grafenwöhr
DE 414
So 27.11. 09:280-0100 %1027
1030
978
S 2 (4)1600 Nebeldunst
Hof
DE 578
So 27.11. 09:20-1-1100 %1027
1031
959
Uml 1 (2)6000Leicht bewölkt (91) 
Hohenfels
DE 436
So 27.11. 09:04-0-380 %1028
1031
976
Windstill400 Dunst
Ingolstadt
DE 366
So 27.11. 09:2000100 %1028
1031
984
SO 2 (3)600  
Leipzig-Schkeuditz
DE 129
So 27.11. 09:202193 %1027
1028
1011
S 3 (7)>= 10000Nicht signifikant 
München
DE 445
So 27.11. 09:20-2-2100 %1028
1032
975
O 3 (7)300 Nebel (gefrierend)
Neuburg-Donau
DE 378
So 27.11. 09:20-0-0100 %1028
1031
983
O 2 (5)200 Nebel (gefrierend)
Niederstetten
DE 466
So 27.11. 09:201093 %1026
1029
971
SO 2 (6)>= 10000Wolkig (12000)
Leicht bewölkt (4000)
 
Nürnberg
DE 312
So 27.11. 09:201093 %1028
1030
991
SO 3 (8)1400Stark bewölkt (61)Nebeldunst
Stuttgart
DE 374
So 27.11. 09:20-2-2100 %1026
1029
981
Uml 1 (2)8000Wolkig (30) 

Altimeter: Einstellung am Altimeter (Höhenmesser), die Höhe 0 muss auf diesen Luftdruckwert zeigen, damit das Gerät die Stationshöhe richtig anzeigt.

NN: Luftdruck reduziert auf "Normal Null", auf Meereshöhe, dieser von der Temperatur abhängige Wert wird bisweilen unkorrekt einfach als "Luftdruck" bezeichnet. Eigentlich nur eine fiktive Größe, die es erlaubt, Stationen auf unterschiedlichen Höhen miteinander zu vergleichen.

Station: Realer Luftdruck an der Station.